Siliana, Tunisia

9:16 PM CET on July 28, 2014 (GMT +0100)
Jendouba (DTTN) Elev 472 ft | 36.48 °N, 8.80 °E | Change Station

Current weather conditions updated 2 hours ago

Clear
Clear
95 °F
Feels Like 98 °F
N
16
Wind Variable Wind from NNE

Tomorrow is forecast to be nearly the same temperature as today.

Today
High -- | Low -- °F
--% Chance of Precip.
Yesterday
High -- | Low -- °F
Precip. -- in
5:26 AM 7:31 PM
Waxing Crescent, 3% visible
Pressure 29.86 in
Visibility -9999.0 miles
Clouds
Heat Index 98 °F
Dew Point 66 °F
Humidity 39%
Rainfall 0.00 in
Snow Depth Not available.
UV Not available.
Pollen Not available.
Air Quality Not available.
Flu Activity Not available.
METAR DTTN 281800Z 03014KT CAVOK 35/19 Q1011 SIROCCO

More Conditions Fewer Conditions

Pressure 29.86 in
Visibility -9999.0 miles
Clouds
Heat Index 98 °F
Dew Point 66 °F
Humidity 39%
Rainfall 0.00 in
Snow Depth Not available.
UV Not available.
Pollen Not available.
Air Quality Not available.
Flu Activity Not available.
METAR DTTN 281800Z 03014KT CAVOK 35/19 Q1011 SIROCCO

More Conditions Fewer Conditions

10-Day Weather Forecast

Almanac

Astronomy

Jul. 28, 2014 Rise Set
Actual Time 5:26 AM CET 7:31 PM CET
Civil Twilight 4:57 AM CET 7:59 PM CET
Nautical Twilight 4:22 AM CET 8:34 PM CET
Astronomical Twilight 3:45 AM CET 9:11 PM CET
Moon 6:48 AM CET 8:09 PM CET
Length of Visible Light 15h 01m
Length of Day
14h 04m
Tomorrow will be 1m 36s shorter.
Waxing Crescent, 3% of the Moon is Illuminated
Today
Waxing Crescent
Aug 3
First Quarter
Aug 10
Full
Aug 17
Last Quarter
Aug 25
New

Today's Extremes

Country Highs Country Lows

Community

WunderPhotos

Upload Photos

1,738,486 photos uploaded!

Nearby

Snow Depth

Not available.

Earthquake Activity

City Distance Mag. Time & Date
No recent earthquake activity has been reported nearby.
Minimum magnitude displayed is 2.5.

Coastal Water Temperatures

Place Temperature
No Stations Reporting

Nearby Weather Stations

There are no personal weather stations in this area.